sensor_id;sensor_type;location;lat;lon;timestamp;pressure;altitude;pressure_sealevel;temperature;humidity
39823;BME280;25499;53.958;10.970;2023-09-18T06:39:02;100421.84;;;18.51;100.00
39823;BME280;25499;53.958;10.970;2023-09-18T06:41:29;100409.31;;;18.56;100.00
39823;BME280;25499;53.958;10.970;2023-09-18T06:43:56;100401.53;;;18.53;100.00
39823;BME280;25499;53.958;10.970;2023-09-18T06:46:23;100393.78;;;18.50;100.00
39823;BME280;25499;53.958;10.970;2023-09-18T06:48:50;100390.75;;;18.59;100.00
39823;BME280;25499;53.958;10.970;2023-09-18T06:51:17;100396.47;;;18.69;100.00
39823;BME280;25499;53.958;10.970;2023-09-18T06:53:44;100397.88;;;18.98;100.00
39823;BME280;25499;53.958;10.970;2023-09-18T06:56:12;100393.88;;;19.29;100.00
39823;BME280;25499;53.958;10.970;2023-09-18T06:58:39;100379.06;;;19.46;99.50
39823;BME280;25499;53.958;10.970;2023-09-18T07:01:06;100373.63;;;19.68;98.11
39823;BME280;25499;53.958;10.970;2023-09-18T07:03:34;100361.78;;;19.77;96.94
39823;BME280;25499;53.958;10.970;2023-09-18T07:06:02;100366.91;;;19.99;95.99
39823;BME280;25499;53.958;10.970;2023-09-18T07:08:29;100350.41;;;19.93;94.67
39823;BME280;25499;53.958;10.970;2023-09-18T07:10:58;100347.50;;;20.17;93.58
39823;BME280;25499;53.958;10.970;2023-09-18T07:13:26;100341.66;;;20.28;92.96
39823;BME280;25499;53.958;10.970;2023-09-18T07:15:53;100341.16;;;20.39;91.96
39823;BME280;25499;53.958;10.970;2023-09-18T07:18:20;100335.00;;;20.56;91.54
39823;BME280;25499;53.958;10.970;2023-09-18T07:20:46;100331.88;;;20.65;90.76
39823;BME280;25499;53.958;10.970;2023-09-18T07:23:13;100327.66;;;20.78;89.99
39823;BME280;25499;53.958;10.970;2023-09-18T07:25:40;100321.06;;;20.70;89.65
39823;BME280;25499;53.958;10.970;2023-09-18T07:28:09;100323.03;;;20.66;89.46
39823;BME280;25499;53.958;10.970;2023-09-18T07:30:42;100324.03;;;20.81;88.97
39823;BME280;25499;53.958;10.970;2023-09-18T07:33:10;100316.63;;;20.88;89.03
39823;BME280;25499;53.958;10.970;2023-09-18T07:35:37;100322.47;;;20.77;88.72
39823;BME280;25499;53.958;10.970;2023-09-18T07:38:04;100332.16;;;20.94;89.45
39823;BME280;25499;53.958;10.970;2023-09-18T07:40:31;100316.56;;;21.05;88.58
39823;BME280;25499;53.958;10.970;2023-09-18T07:42:58;100308.53;;;21.07;88.08
39823;BME280;25499;53.958;10.970;2023-09-18T07:45:24;100307.81;;;20.87;88.53
39823;BME280;25499;53.958;10.970;2023-09-18T07:47:53;100302.13;;;20.77;88.65
39823;BME280;25499;53.958;10.970;2023-09-18T07:50:20;100306.13;;;21.02;88.54
39823;BME280;25499;53.958;10.970;2023-09-18T07:52:46;100301.72;;;21.34;87.86
39823;BME280;25499;53.958;10.970;2023-09-18T07:55:13;100295.75;;;21.47;87.30
39823;BME280;25499;53.958;10.970;2023-09-18T07:57:41;100295.25;;;21.72;87.09
39823;BME280;25499;53.958;10.970;2023-09-18T08:00:10;100268.13;;;21.83;86.04
39823;BME280;25499;53.958;10.970;2023-09-18T08:02:38;100264.44;;;22.15;85.18
39823;BME280;25499;53.958;10.970;2023-09-18T08:05:07;100245.09;;;22.44;83.24
39823;BME280;25499;53.958;10.970;2023-09-18T08:07:34;100234.38;;;22.74;82.31
39823;BME280;25499;53.958;10.970;2023-09-18T08:10:02;100196.94;;;22.79;80.80
39823;BME280;25499;53.958;10.970;2023-09-18T08:12:30;100191.63;;;22.79;79.88
39823;BME280;25499;53.958;10.970;2023-09-18T08:14:57;100194.19;;;22.95;79.33
39823;BME280;25499;53.958;10.970;2023-09-18T08:17:25;100178.59;;;23.03;78.49
39823;BME280;25499;53.958;10.970;2023-09-18T08:19:52;100206.59;;;23.36;78.43
39823;BME280;25499;53.958;10.970;2023-09-18T08:22:21;100192.41;;;23.50;76.99
39823;BME280;25499;53.958;10.970;2023-09-18T08:24:49;100193.50;;;23.60;76.80
39823;BME280;25499;53.958;10.970;2023-09-18T08:27:18;100176.25;;;23.53;75.61
39823;BME280;25499;53.958;10.970;2023-09-18T08:29:45;100180.25;;;23.45;75.36
39823;BME280;25499;53.958;10.970;2023-09-18T08:32:12;100213.28;;;23.69;76.42
39823;BME280;25499;53.958;10.970;2023-09-18T08:34:39;100197.78;;;23.75;76.00
39823;BME280;25499;53.958;10.970;2023-09-18T08:37:06;100168.88;;;23.43;75.03
39823;BME280;25499;53.958;10.970;2023-09-18T08:39:35;100177.41;;;23.21;75.00
39823;BME280;25499;53.958;10.970;2023-09-18T08:42:04;100173.59;;;22.98;75.48
39823;BME280;25499;53.958;10.970;2023-09-18T08:44:33;100182.81;;;22.78;76.67
39823;BME280;25499;53.958;10.970;2023-09-18T08:47:02;100181.78;;;22.66;76.78
39823;BME280;25499;53.958;10.970;2023-09-18T08:49:30;100188.59;;;22.70;76.88
39823;BME280;25499;53.958;10.970;2023-09-18T08:51:59;100188.69;;;22.69;76.79
39823;BME280;25499;53.958;10.970;2023-09-18T08:54:26;100206.59;;;22.94;77.15
39823;BME280;25499;53.958;10.970;2023-09-18T08:56:56;100214.25;;;22.99;76.93
39823;BME280;25499;53.958;10.970;2023-09-18T08:59:23;100201.56;;;22.89;76.87
39823;BME280;25499;53.958;10.970;2023-09-18T09:01:51;100195.44;;;22.75;77.31
39823;BME280;25499;53.958;10.970;2023-09-18T09:04:19;100206.63;;;22.65;77.87
39823;BME280;25499;53.958;10.970;2023-09-18T09:06:46;100214.47;;;22.67;78.72
39823;BME280;25499;53.958;10.970;2023-09-18T09:09:13;100191.56;;;22.51;78.72
39823;BME280;25499;53.958;10.970;2023-09-18T09:11:48;100165.13;;;22.35;78.12
39823;BME280;25499;53.958;10.970;2023-09-18T09:14:17;100160.34;;;22.26;78.54
39823;BME280;25499;53.958;10.970;2023-09-18T09:16:47;100163.59;;;22.17;79.56
39823;BME280;25499;53.958;10.970;2023-09-18T09:19:15;100150.13;;;22.20;79.01
39823;BME280;25499;53.958;10.970;2023-09-18T09:21:43;100143.22;;;22.17;79.19
39823;BME280;25499;53.958;10.970;2023-09-18T09:24:10;100139.13;;;22.26;78.80
39823;BME280;25499;53.958;10.970;2023-09-18T09:26:40;100140.47;;;22.19;78.65
39823;BME280;25499;53.958;10.970;2023-09-18T09:29:15;100170.72;;;22.31;79.17
39823;BME280;25499;53.958;10.970;2023-09-18T09:31:45;100170.69;;;22.45;78.86
39823;BME280;25499;53.958;10.970;2023-09-18T09:34:12;100178.56;;;22.47;79.84
39823;BME280;25499;53.958;10.970;2023-09-18T09:36:52;100167.88;;;22.48;79.70
39823;BME280;25499;53.958;10.970;2023-09-18T09:39:19;100146.38;;;22.39;79.05
39823;BME280;25499;53.958;10.970;2023-09-18T09:41:47;100171.41;;;22.49;79.78
39823;BME280;25499;53.958;10.970;2023-09-18T09:44:15;100163.50;;;22.62;78.91
39823;BME280;25499;53.958;10.970;2023-09-18T09:46:47;100158.75;;;22.67;77.99
39823;BME280;25499;53.958;10.970;2023-09-18T09:49:14;100161.31;;;22.83;77.52
39823;BME280;25499;53.958;10.970;2023-09-18T09:51:43;100174.28;;;23.29;77.08
39823;BME280;25499;53.958;10.970;2023-09-18T09:54:10;100145.13;;;23.55;76.18
39823;BME280;25499;53.958;10.970;2023-09-18T09:56:41;100109.22;;;23.22;75.36
39823;BME280;25499;53.958;10.970;2023-09-18T09:59:09;100135.53;;;23.39;75.75
39823;BME280;25499;53.958;10.970;2023-09-18T10:01:37;100129.22;;;23.40;75.46
39823;BME280;25499;53.958;10.970;2023-09-18T10:04:09;100078.16;;;23.50;73.96
39823;BME280;25499;53.958;10.970;2023-09-18T10:06:37;100101.47;;;23.84;73.10
39823;BME280;25499;53.958;10.970;2023-09-18T10:09:06;100125.31;;;23.99;73.73
39823;BME280;25499;53.958;10.970;2023-09-18T10:11:41;100089.00;;;23.59;73.14
39823;BME280;25499;53.958;10.970;2023-09-18T10:14:12;100112.38;;;23.67;73.81
39823;BME280;25499;53.958;10.970;2023-09-18T10:16:45;100143.50;;;23.52;75.16
39823;BME280;25499;53.958;10.970;2023-09-18T10:19:20;100105.41;;;23.26;73.80
39823;BME280;25499;53.958;10.970;2023-09-18T10:21:55;100108.97;;;23.12;73.96
39823;BME280;25499;53.958;10.970;2023-09-18T10:24:28;100128.22;;;23.01;74.97
39823;BME280;25499;53.958;10.970;2023-09-18T10:26:59;100117.19;;;22.95;74.74
39823;BME280;25499;53.958;10.970;2023-09-18T10:29:29;100132.44;;;22.91;75.62
39823;BME280;25499;53.958;10.970;2023-09-18T10:31:56;100141.19;;;22.93;75.16
39823;BME280;25499;53.958;10.970;2023-09-18T10:34:25;100143.53;;;23.65;74.63
39823;BME280;25499;53.958;10.970;2023-09-18T10:36:54;100102.75;;;24.17;72.34
39823;BME280;25499;53.958;10.970;2023-09-18T10:39:23;100075.03;;;24.33;70.54
39823;BME280;25499;53.958;10.970;2023-09-18T10:41:53;100067.00;;;23.96;70.67
39823;BME280;25499;53.958;10.970;2023-09-18T10:44:21;100052.88;;;23.82;70.49
39823;BME280;25499;53.958;10.970;2023-09-18T10:46:50;100059.75;;;23.46;71.49
39823;BME280;25499;53.958;10.970;2023-09-18T10:49:18;100089.47;;;23.26;72.29
39823;BME280;25499;53.958;10.970;2023-09-18T10:51:48;100099.00;;;23.16;73.00
39823;BME280;25499;53.958;10.970;2023-09-18T10:54:16;100108.50;;;23.05;73.27
39823;BME280;25499;53.958;10.970;2023-09-18T10:56:43;100114.50;;;23.09;74.10
39823;BME280;25499;53.958;10.970;2023-09-18T10:59:11;100113.94;;;22.89;74.38
39823;BME280;25499;53.958;10.970;2023-09-18T11:01:38;100126.19;;;22.92;74.90
39823;BME280;25499;53.958;10.970;2023-09-18T11:04:06;100131.56;;;22.78;75.39
39823;BME280;25499;53.958;10.970;2023-09-18T11:07:05;100142.41;;;22.87;75.55
39823;BME280;25499;53.958;10.970;2023-09-18T11:09:40;100143.94;;;22.91;75.93
39823;BME280;25499;53.958;10.970;2023-09-18T11:12:09;100147.06;;;22.84;76.83
39823;BME280;25499;53.958;10.970;2023-09-18T11:14:55;100137.28;;;22.84;76.17
39823;BME280;25499;53.958;10.970;2023-09-18T11:17:33;100145.66;;;22.78;76.28
39823;BME280;25499;53.958;10.970;2023-09-18T11:20:08;100146.31;;;22.82;76.26
39823;BME280;25499;53.958;10.970;2023-09-18T11:22:39;100154.63;;;22.90;76.03
39823;BME280;25499;53.958;10.970;2023-09-18T11:25:28;100132.03;;;22.97;75.63
39823;BME280;25499;53.958;10.970;2023-09-18T11:27:56;100129.44;;;22.83;75.66
39823;BME280;25499;53.958;10.970;2023-09-18T11:30:23;100145.09;;;22.73;76.02
39823;BME280;25499;53.958;10.970;2023-09-18T11:32:51;100142.91;;;22.65;76.32
39823;BME280;25499;53.958;10.970;2023-09-18T11:35:19;100156.50;;;22.61;77.17
39823;BME280;25499;53.958;10.970;2023-09-18T11:37:47;100160.56;;;22.66;77.07
39823;BME280;25499;53.958;10.970;2023-09-18T11:40:32;100164.91;;;22.67;77.23
39823;BME280;25499;53.958;10.970;2023-09-18T11:43:22;100158.66;;;22.68;76.85
39823;BME280;25499;53.958;10.970;2023-09-18T11:45:51;100138.69;;;22.63;77.29
39823;BME280;25499;53.958;10.970;2023-09-18T11:48:19;100168.53;;;22.66;77.74
39823;BME280;25499;53.958;10.970;2023-09-18T11:50:46;100166.81;;;22.65;78.04
39823;BME280;25499;53.958;10.970;2023-09-18T11:53:17;100174.22;;;22.60;77.97
39823;BME280;25499;53.958;10.970;2023-09-18T11:55:45;100165.31;;;22.61;78.09
39823;BME280;25499;53.958;10.970;2023-09-18T11:58:12;100175.25;;;22.58;78.33
39823;BME280;25499;53.958;10.970;2023-09-18T12:00:40;100167.97;;;22.47;78.47
39823;BME280;25499;53.958;10.970;2023-09-18T12:03:17;100175.06;;;22.46;79.25
39823;BME280;25499;53.958;10.970;2023-09-18T12:05:57;100186.91;;;22.55;79.61
39823;BME280;25499;53.958;10.970;2023-09-18T12:08:26;100180.66;;;22.56;79.42
39823;BME280;25499;53.958;10.970;2023-09-18T12:10:54;100167.97;;;22.61;79.82
39823;BME280;25499;53.958;10.970;2023-09-18T12:13:21;100170.44;;;22.50;79.48
39823;BME280;25499;53.958;10.970;2023-09-18T12:15:48;100176.56;;;22.50;80.13
39823;BME280;25499;53.958;10.970;2023-09-18T12:18:15;100181.06;;;22.35;80.34
39823;BME280;25499;53.958;10.970;2023-09-18T12:20:47;100198.56;;;22.38;80.51
39823;BME280;25499;53.958;10.970;2023-09-18T12:23:14;100191.47;;;22.39;80.55
39823;BME280;25499;53.958;10.970;2023-09-18T12:25:45;100208.25;;;22.39;81.35
39823;BME280;25499;53.958;10.970;2023-09-18T12:28:13;100210.72;;;22.42;81.72
39823;BME280;25499;53.958;10.970;2023-09-18T12:30:42;100200.00;;;22.44;81.21
39823;BME280;25499;53.958;10.970;2023-09-18T12:33:09;100197.91;;;22.34;81.48
39823;BME280;25499;53.958;10.970;2023-09-18T12:35:37;100196.41;;;22.30;81.89
39823;BME280;25499;53.958;10.970;2023-09-18T12:38:13;100196.63;;;22.26;81.82
39823;BME280;25499;53.958;10.970;2023-09-18T12:40:42;100202.22;;;22.21;82.20
39823;BME280;25499;53.958;10.970;2023-09-18T12:43:12;100228.56;;;22.24;82.33
39823;BME280;25499;53.958;10.970;2023-09-18T12:45:41;100223.09;;;22.42;82.45
39823;BME280;25499;53.958;10.970;2023-09-18T12:48:08;100222.06;;;22.59;82.34
39823;BME280;25499;53.958;10.970;2023-09-18T12:50:36;100210.50;;;22.60;82.02
39823;BME280;25499;53.958;10.970;2023-09-18T12:53:07;100203.09;;;22.79;82.23
39823;BME280;25499;53.958;10.970;2023-09-18T12:55:34;100173.34;;;22.74;81.31
39823;BME280;25499;53.958;10.970;2023-09-18T12:58:03;100179.13;;;22.66;81.74
39823;BME280;25499;53.958;10.970;2023-09-18T13:00:33;100194.56;;;22.74;81.97
39823;BME280;25499;53.958;10.970;2023-09-18T13:03:00;100193.53;;;22.77;82.36
39823;BME280;25499;53.958;10.970;2023-09-18T13:05:30;100195.25;;;22.78;82.36
39823;BME280;25499;53.958;10.970;2023-09-18T13:08:02;100204.53;;;22.85;82.40
39823;BME280;25499;53.958;10.970;2023-09-18T13:10:29;100173.22;;;22.90;81.86
39823;BME280;25499;53.958;10.970;2023-09-18T13:12:56;100179.66;;;22.86;81.74
39823;BME280;25499;53.958;10.970;2023-09-18T13:15:27;100175.13;;;22.88;81.91
39823;BME280;25499;53.958;10.970;2023-09-18T13:17:55;100167.50;;;22.96;81.92
39823;BME280;25499;53.958;10.970;2023-09-18T13:20:24;100160.66;;;23.06;81.78
39823;BME280;25499;53.958;10.970;2023-09-18T13:22:54;100171.91;;;23.24;81.47
39823;BME280;25499;53.958;10.970;2023-09-18T13:25:21;100177.47;;;23.34;81.37
39823;BME280;25499;53.958;10.970;2023-09-18T13:27:49;100200.41;;;23.35;81.60
39823;BME280;25499;53.958;10.970;2023-09-18T13:30:16;100172.22;;;23.20;80.92
39823;BME280;25499;53.958;10.970;2023-09-18T13:32:45;100194.06;;;23.11;81.82
39823;BME280;25499;53.958;10.970;2023-09-18T13:35:14;100196.81;;;23.09;82.26
39823;BME280;25499;53.958;10.970;2023-09-18T13:37:41;100186.66;;;23.01;81.86
39823;BME280;25499;53.958;10.970;2023-09-18T13:40:09;100196.53;;;23.14;82.30
39823;BME280;25499;53.958;10.970;2023-09-18T13:42:36;100189.81;;;22.94;83.12
39823;BME280;25499;53.958;10.970;2023-09-18T13:45:05;100193.66;;;23.02;83.28
39823;BME280;25499;53.958;10.970;2023-09-18T13:47:33;100182.00;;;23.05;83.23
39823;BME280;25499;53.958;10.970;2023-09-18T13:50:03;100209.06;;;23.12;83.47
39823;BME280;25499;53.958;10.970;2023-09-18T13:52:31;100194.22;;;23.22;83.54
39823;BME280;25499;53.958;10.970;2023-09-18T13:54:58;100198.94;;;23.31;83.93
39823;BME280;25499;53.958;10.970;2023-09-18T13:57:26;100196.63;;;23.39;82.90
39823;BME280;25499;53.958;10.970;2023-09-18T13:59:52;100188.22;;;23.33;82.55
39823;BME280;25499;53.958;10.970;2023-09-18T14:02:19;100185.66;;;23.31;82.92
39823;BME280;25499;53.958;10.970;2023-09-18T14:04:48;100165.56;;;23.27;82.78
39823;BME280;25499;53.958;10.970;2023-09-18T14:07:17;100152.56;;;23.22;82.11
39823;BME280;25499;53.958;10.970;2023-09-18T14:09:43;100160.00;;;23.17;81.93
39823;BME280;25499;53.958;10.970;2023-09-18T14:12:11;100157.28;;;23.32;81.68
39823;BME280;25499;53.958;10.970;2023-09-18T14:14:39;100159.19;;;23.30;81.89
39823;BME280;25499;53.958;10.970;2023-09-18T14:17:06;100176.78;;;23.18;83.17
39823;BME280;25499;53.958;10.970;2023-09-18T14:19:34;100164.84;;;23.11;82.59
39823;BME280;25499;53.958;10.970;2023-09-18T14:22:01;100178.69;;;23.01;83.18
39823;BME280;25499;53.958;10.970;2023-09-18T14:24:31;100165.63;;;22.98;82.87
39823;BME280;25499;53.958;10.970;2023-09-18T14:26:59;100166.00;;;22.92;83.24
39823;BME280;25499;53.958;10.970;2023-09-18T14:29:26;100173.41;;;22.87;83.99
39823;BME280;25499;53.958;10.970;2023-09-18T14:31:53;100154.28;;;22.82;83.68
39823;BME280;25499;53.958;10.970;2023-09-18T14:34:20;100149.16;;;22.79;83.41
39823;BME280;25499;53.958;10.970;2023-09-18T14:36:47;100144.34;;;22.71;83.31
39823;BME280;25499;53.958;10.970;2023-09-18T14:39:14;100157.81;;;22.68;84.10
39823;BME280;25499;53.958;10.970;2023-09-18T14:41:43;100159.25;;;22.59;84.55
39823;BME280;25499;53.958;10.970;2023-09-18T14:44:10;100151.44;;;22.70;84.06
39823;BME280;25499;53.958;10.970;2023-09-18T14:46:37;100154.50;;;22.64;83.37
39823;BME280;25499;53.958;10.970;2023-09-18T14:49:04;100158.66;;;22.68;83.34
39823;BME280;25499;53.958;10.970;2023-09-18T14:51:33;100135.94;;;22.64;82.68
39823;BME280;25499;53.958;10.970;2023-09-18T14:54:00;100132.78;;;22.72;82.60
39823;BME280;25499;53.958;10.970;2023-09-18T14:56:27;100140.63;;;22.73;82.78
39823;BME280;25499;53.958;10.970;2023-09-18T14:58:55;100140.81;;;22.70;83.02
39823;BME280;25499;53.958;10.970;2023-09-18T15:01:23;100129.00;;;22.62;83.07
39823;BME280;25499;53.958;10.970;2023-09-18T15:03:50;100136.31;;;22.58;83.44
39823;BME280;25499;53.958;10.970;2023-09-18T15:06:17;100136.03;;;22.63;83.19
39823;BME280;25499;53.958;10.970;2023-09-18T15:08:44;100139.72;;;22.60;83.81
39823;BME280;25499;53.958;10.970;2023-09-18T15:11:11;100143.53;;;22.56;83.85
39823;BME280;25499;53.958;10.970;2023-09-18T15:13:38;100141.16;;;22.51;84.10
39823;BME280;25499;53.958;10.970;2023-09-18T15:16:06;100132.91;;;22.56;83.78
39823;BME280;25499;53.958;10.970;2023-09-18T15:18:33;100133.09;;;22.53;83.29
39823;BME280;25499;53.958;10.970;2023-09-18T15:21:01;100133.19;;;22.51;83.28
39823;BME280;25499;53.958;10.970;2023-09-18T15:23:29;100124.94;;;22.56;82.88
39823;BME280;25499;53.958;10.970;2023-09-18T15:25:58;100124.84;;;22.43;82.61
39823;BME280;25499;53.958;10.970;2023-09-18T15:28:26;100121.53;;;22.40;83.30
39823;BME280;25499;53.958;10.970;2023-09-18T15:30:54;100131.50;;;22.36;83.85
39823;BME280;25499;53.958;10.970;2023-09-18T15:33:23;100135.31;;;22.32;84.02
39823;BME280;25499;53.958;10.970;2023-09-18T15:35:50;100143.69;;;22.24;84.37
39823;BME280;25499;53.958;10.970;2023-09-18T15:38:18;100136.47;;;22.26;83.96
39823;BME280;25499;53.958;10.970;2023-09-18T15:40:44;100127.56;;;22.13;83.74
39823;BME280;25499;53.958;10.970;2023-09-18T15:43:12;100121.16;;;22.17;83.08
39823;BME280;25499;53.958;10.970;2023-09-18T15:45:38;100120.59;;;22.12;82.70
39823;BME280;25499;53.958;10.970;2023-09-18T15:48:06;100112.81;;;22.09;82.42
39823;BME280;25499;53.958;10.970;2023-09-18T15:50:34;100119.16;;;22.06;82.52
39823;BME280;25499;53.958;10.970;2023-09-18T15:53:01;100113.56;;;21.96;83.08
39823;BME280;25499;53.958;10.970;2023-09-18T15:55:28;100115.25;;;21.97;82.91
39823;BME280;25499;53.958;10.970;2023-09-18T15:57:54;100112.03;;;21.92;82.76
39823;BME280;25499;53.958;10.970;2023-09-18T16:00:21;100119.25;;;21.90;82.72
39823;BME280;25499;53.958;10.970;2023-09-18T16:02:48;100123.53;;;21.93;82.99
39823;BME280;25499;53.958;10.970;2023-09-18T16:05:17;100121.81;;;21.92;82.93
39823;BME280;25499;53.958;10.970;2023-09-18T16:07:52;100125.28;;;21.92;82.99
39823;BME280;25499;53.958;10.970;2023-09-18T16:10:23;100136.47;;;21.83;83.15
39823;BME280;25499;53.958;10.970;2023-09-18T16:12:50;100128.50;;;21.83;83.56
39823;BME280;25499;53.958;10.970;2023-09-18T16:15:17;100155.38;;;21.77;84.32
39823;BME280;25499;53.958;10.970;2023-09-18T16:17:44;100140.44;;;21.76;84.28
39823;BME280;25499;53.958;10.970;2023-09-18T16:20:11;100149.59;;;21.70;85.28
39823;BME280;25499;53.958;10.970;2023-09-18T16:22:39;100145.34;;;21.68;85.21
39823;BME280;25499;53.958;10.970;2023-09-18T16:25:09;100145.94;;;21.57;85.47
39823;BME280;25499;53.958;10.970;2023-09-18T16:27:36;100143.88;;;21.62;85.58
39823;BME280;25499;53.958;10.970;2023-09-18T16:30:03;100126.22;;;21.63;85.15
39823;BME280;25499;53.958;10.970;2023-09-18T16:32:31;100133.09;;;21.65;85.16
39823;BME280;25499;53.958;10.970;2023-09-18T16:34:58;100133.66;;;21.56;85.39
39823;BME280;25499;53.958;10.970;2023-09-18T16:37:26;100138.88;;;21.57;85.16
39823;BME280;25499;53.958;10.970;2023-09-18T16:39:53;100141.44;;;21.59;85.23
39823;BME280;25499;53.958;10.970;2023-09-18T16:42:21;100139.91;;;21.55;85.40
39823;BME280;25499;53.958;10.970;2023-09-18T16:44:48;100136.31;;;21.40;85.96
39823;BME280;25499;53.958;10.970;2023-09-18T16:47:15;100134.44;;;21.42;86.10
39823;BME280;25499;53.958;10.970;2023-09-18T16:49:41;100124.97;;;21.38;85.50
39823;BME280;25499;53.958;10.970;2023-09-18T16:52:08;100130.84;;;21.43;85.68
39823;BME280;25499;53.958;10.970;2023-09-18T16:54:36;100124.19;;;21.36;85.63
39823;BME280;25499;53.958;10.970;2023-09-18T16:57:03;100124.75;;;21.27;86.09
39823;BME280;25499;53.958;10.970;2023-09-18T16:59:31;100133.63;;;21.26;86.63
39823;BME280;25499;53.958;10.970;2023-09-18T17:01:58;100145.06;;;21.26;86.97
39823;BME280;25499;53.958;10.970;2023-09-18T17:04:26;100135.69;;;21.20;87.15
39823;BME280;25499;53.958;10.970;2023-09-18T17:06:53;100134.91;;;21.18;87.48
39823;BME280;25499;53.958;10.970;2023-09-18T17:09:20;100136.56;;;21.05;88.03
39823;BME280;25499;53.958;10.970;2023-09-18T17:11:47;100150.31;;;21.12;87.81
39823;BME280;25499;53.958;10.970;2023-09-18T17:14:13;100134.84;;;21.04;88.19
39823;BME280;25499;53.958;10.970;2023-09-18T17:16:42;100139.28;;;21.03;88.92
39823;BME280;25499;53.958;10.970;2023-09-18T17:19:09;100134.66;;;21.07;88.84
39823;BME280;25499;53.958;10.970;2023-09-18T17:21:38;100134.50;;;20.94;89.57
39823;BME280;25499;53.958;10.970;2023-09-18T17:24:05;100138.09;;;20.77;89.90
39823;BME280;25499;53.958;10.970;2023-09-18T17:26:33;100133.00;;;20.74;90.09
39823;BME280;25499;53.958;10.970;2023-09-18T17:29:00;100117.44;;;20.68;90.62
39823;BME280;25499;53.958;10.970;2023-09-18T17:31:28;100115.50;;;20.72;90.78
39823;BME280;25499;53.958;10.970;2023-09-18T17:33:56;100102.59;;;20.65;90.84
39823;BME280;25499;53.958;10.970;2023-09-18T17:36:23;100097.50;;;20.62;91.25
39823;BME280;25499;53.958;10.970;2023-09-18T17:38:50;100098.63;;;20.57;91.21
39823;BME280;25499;53.958;10.970;2023-09-18T17:41:17;100100.53;;;20.55;91.45
39823;BME280;25499;53.958;10.970;2023-09-18T17:43:44;100096.75;;;20.43;91.94
39823;BME280;25499;53.958;10.970;2023-09-18T17:46:10;100103.00;;;20.42;92.06
39823;BME280;25499;53.958;10.970;2023-09-18T17:48:37;100110.41;;;20.35;92.21
39823;BME280;25499;53.958;10.970;2023-09-18T17:51:06;100117.91;;;20.27;93.01
39823;BME280;25499;53.958;10.970;2023-09-18T17:53:33;100122.22;;;20.28;93.82
39823;BME280;25499;53.958;10.970;2023-09-18T17:55:59;100126.59;;;20.29;94.25
39823;BME280;25499;53.958;10.970;2023-09-18T17:58:26;100127.94;;;20.20;94.29
39823;BME280;25499;53.958;10.970;2023-09-18T18:00:53;100128.59;;;20.08;95.23
39823;BME280;25499;53.958;10.970;2023-09-18T18:03:21;100132.31;;;20.04;95.58
39823;BME280;25499;53.958;10.970;2023-09-18T18:05:49;100133.28;;;20.03;96.40
39823;BME280;25499;53.958;10.970;2023-09-18T18:08:18;100122.53;;;20.06;96.86
39823;BME280;25499;53.958;10.970;2023-09-18T18:10:45;100134.97;;;20.04;97.17
39823;BME280;25499;53.958;10.970;2023-09-18T18:13:13;100128.84;;;20.03;97.64
39823;BME280;25499;53.958;10.970;2023-09-18T18:15:41;100121.06;;;20.00;97.77
39823;BME280;25499;53.958;10.970;2023-09-18T18:18:08;100112.59;;;19.93;97.93
39823;BME280;25499;53.958;10.970;2023-09-18T18:20:38;100112.69;;;19.92;97.98
39823;BME280;25499;53.958;10.970;2023-09-18T18:23:05;100106.03;;;19.85;98.73
39823;BME280;25499;53.958;10.970;2023-09-18T18:25:33;100112.84;;;19.89;98.57
39823;BME280;25499;53.958;10.970;2023-09-18T18:28:02;100111.53;;;19.80;99.02
39823;BME280;25499;53.958;10.970;2023-09-18T18:30:29;100104.84;;;19.73;99.42
39823;BME280;25499;53.958;10.970;2023-09-18T18:32:55;100105.47;;;19.61;99.88
39823;BME280;25499;53.958;10.970;2023-09-18T18:35:22;100104.44;;;19.63;100.00
39823;BME280;25499;53.958;10.970;2023-09-18T18:37:50;100113.06;;;19.67;100.00
39823;BME280;25499;53.958;10.970;2023-09-18T18:40:17;100112.38;;;19.63;100.00
39823;BME280;25499;53.958;10.970;2023-09-18T18:42:49;100107.63;;;19.70;100.00
39823;BME280;25499;53.958;10.970;2023-09-18T18:45:16;100106.00;;;19.67;100.00
39823;BME280;25499;53.958;10.970;2023-09-18T18:47:45;100102.41;;;19.68;100.00
39823;BME280;25499;53.958;10.970;2023-09-18T18:50:13;100111.38;;;19.66;100.00
39823;BME280;25499;53.958;10.970;2023-09-18T18:52:40;100093.97;;;19.62;100.00
39823;BME280;25499;53.958;10.970;2023-09-18T18:55:08;100094.84;;;19.62;100.00
39823;BME280;25499;53.958;10.970;2023-09-18T18:57:35;100102.75;;;19.62;100.00
39823;BME280;25499;53.958;10.970;2023-09-18T19:00:03;100105.41;;;19.62;100.00
39823;BME280;25499;53.958;10.970;2023-09-18T19:02:37;100104.84;;;19.55;100.00
39823;BME280;25499;53.958;10.970;2023-09-18T19:05:05;100113.41;;;19.61;100.00
39823;BME280;25499;53.958;10.970;2023-09-18T19:07:34;100118.44;;;19.48;100.00
39823;BME280;25499;53.958;10.970;2023-09-18T19:10:03;100116.91;;;19.44;100.00
39823;BME280;25499;53.958;10.970;2023-09-18T19:12:30;100105.56;;;19.42;100.00
39823;BME280;25499;53.958;10.970;2023-09-18T19:14:58;100112.69;;;19.39;100.00
39823;BME280;25499;53.958;10.970;2023-09-18T19:17:27;100113.09;;;19.32;100.00
39823;BME280;25499;53.958;10.970;2023-09-18T19:19:54;100111.50;;;19.28;100.00
39823;BME280;25499;53.958;10.970;2023-09-18T19:22:21;100109.03;;;19.25;100.00